createdAt,value
2023-03-29T00:00:00.743Z,0.0
2023-03-29T00:05:00.529Z,0.0
2023-03-29T00:10:00.632Z,0.0
2023-03-29T00:15:00.579Z,0.0
2023-03-29T00:20:00.584Z,0.0
2023-03-29T00:25:00.632Z,0.0
2023-03-29T00:30:00.622Z,0.0
2023-03-29T00:35:00.595Z,0.0
2023-03-29T00:40:00.543Z,0.0
2023-03-29T00:45:00.600Z,0.0
2023-03-29T00:50:00.571Z,0.0
2023-03-29T00:55:00.548Z,0.0
2023-03-29T01:00:00.653Z,0.0
2023-03-29T01:05:00.550Z,0.4
2023-03-29T01:10:00.607Z,0.8
2023-03-29T01:15:00.616Z,0.1
2023-03-29T01:20:00.585Z,0.3
2023-03-29T01:25:00.554Z,1.0
2023-03-29T01:30:00.634Z,0.6
2023-03-29T01:35:00.601Z,0.3
2023-03-29T01:40:00.615Z,1.1
2023-03-29T01:45:00.540Z,1.5
2023-03-29T01:50:00.592Z,0.3
2023-03-29T01:55:00.532Z,2.1
2023-03-29T02:00:00.574Z,2.3
2023-03-29T02:05:00.595Z,2.7
2023-03-29T02:10:00.602Z,3.7
2023-03-29T02:15:00.573Z,3.0
2023-03-29T02:20:00.594Z,2.7
2023-03-29T02:25:00.586Z,2.8
2023-03-29T02:30:00.594Z,2.8
2023-03-29T02:35:00.565Z,0.9
2023-03-29T02:40:00.621Z,1.8
2023-03-29T02:45:00.603Z,1.3
2023-03-29T02:50:00.618Z,0.3
2023-03-29T02:55:00.747Z,0.4
2023-03-29T03:00:00.596Z,1.0
2023-03-29T03:05:00.542Z,1.2
2023-03-29T03:10:00.583Z,0.2
2023-03-29T03:15:00.602Z,0.2
2023-03-29T03:20:00.598Z,0.3
2023-03-29T03:25:00.545Z,0.9
2023-03-29T03:30:00.576Z,0.4
2023-03-29T03:35:00.536Z,0.2
2023-03-29T03:40:00.592Z,0.7
2023-03-29T03:45:00.535Z,0.8
2023-03-29T03:50:00.588Z,2.0
2023-03-29T03:55:00.585Z,0.4
2023-03-29T04:00:00.576Z,1.0
2023-03-29T04:05:00.529Z,0.9
2023-03-29T04:10:00.592Z,0.2
2023-03-29T04:15:00.531Z,0.1
2023-03-29T04:20:00.626Z,1.0
2023-03-29T04:25:00.584Z,0.3
2023-03-29T04:30:00.837Z,0.0
2023-03-29T04:35:00.635Z,1.6
2023-03-29T04:40:00.569Z,1.8
2023-03-29T04:45:00.641Z,1.6
2023-03-29T04:50:00.598Z,1.8
2023-03-29T04:55:00.546Z,1.2
2023-03-29T05:00:00.576Z,2.3
2023-03-29T05:05:00.597Z,3.1
2023-03-29T05:10:00.555Z,2.5
2023-03-29T05:15:00.529Z,2.3
2023-03-29T05:20:00.603Z,3.2
2023-03-29T05:25:00.537Z,2.8
2023-03-29T05:30:00.613Z,3.9
2023-03-29T05:35:00.582Z,3.4
2023-03-29T05:40:06.590Z,1.7
2023-03-29T05:45:00.621Z,1.5
2023-03-29T05:50:00.611Z,1.6
2023-03-29T05:55:00.562Z,3.8
2023-03-29T06:00:00.627Z,2.8
2023-03-29T06:05:00.668Z,0.9
2023-03-29T06:10:00.643Z,1.1
2023-03-29T06:15:00.573Z,3.1
2023-03-29T06:20:00.582Z,2.3
2023-03-29T06:25:00.597Z,2.1
2023-03-29T06:30:00.587Z,2.6
2023-03-29T06:35:00.551Z,3.6
2023-03-29T06:40:00.588Z,4.0
2023-03-29T06:45:00.542Z,0.9
2023-03-29T06:50:00.634Z,4.7
2023-03-29T06:55:00.625Z,3.0
2023-03-29T07:00:00.679Z,3.0
2023-03-29T07:05:00.544Z,4.5
2023-03-29T07:10:00.596Z,4.1
2023-03-29T07:15:00.596Z,4.2
2023-03-29T07:20:00.615Z,7.5
2023-03-29T07:25:00.575Z,7.2
2023-03-29T07:30:00.842Z,4.5
2023-03-29T07:35:00.574Z,5.9
2023-03-29T07:40:00.586Z,4.9
2023-03-29T07:45:00.771Z,6.9
2023-03-29T07:50:00.557Z,2.8
2023-03-29T07:55:00.537Z,1.8
2023-03-29T08:00:00.630Z,3.3
2023-03-29T08:05:00.667Z,2.6
2023-03-29T08:10:00.686Z,5.7
2023-03-29T08:15:00.532Z,2.3
2023-03-29T08:20:00.705Z,3.0
2023-03-29T08:25:00.603Z,7.3
2023-03-29T08:30:00.620Z,3.2
2023-03-29T08:35:00.539Z,5.9
2023-03-29T08:40:00.596Z,2.1
2023-03-29T08:45:00.595Z,5.8
2023-03-29T08:50:00.633Z,5.8
2023-03-29T08:55:00.784Z,5.3
2023-03-29T09:00:00.610Z,7.6
2023-03-29T09:05:00.613Z,4.5
2023-03-29T09:10:00.646Z,7.6
2023-03-29T09:15:00.797Z,6.0
2023-03-29T09:20:00.592Z,8.4
2023-03-29T09:25:00.577Z,6.1
2023-03-29T09:30:00.574Z,5.8
2023-03-29T09:35:00.574Z,10.8
2023-03-29T09:40:05.053Z,6.0
2023-03-29T09:45:00.560Z,5.5
2023-03-29T09:50:00.652Z,6.4
2023-03-29T09:55:01.075Z,10.9
2023-03-29T10:00:00.597Z,10.5
2023-03-29T10:05:00.729Z,5.5
2023-03-29T10:10:00.576Z,11.7
2023-03-29T10:15:00.744Z,5.4
2023-03-29T10:20:04.591Z,9.9
2023-03-29T10:25:00.595Z,9.3
2023-03-29T10:30:00.605Z,10.7
2023-03-29T10:35:00.737Z,11.3
2023-03-29T10:40:00.573Z,3.5
2023-03-29T10:45:00.649Z,11.2
2023-03-29T10:50:00.580Z,8.6
2023-03-29T10:55:00.748Z,8.4
2023-03-29T11:00:00.646Z,8.0
2023-03-29T11:05:00.552Z,9.8
2023-03-29T11:10:00.607Z,8.1
2023-03-29T11:15:00.590Z,8.8
2023-03-29T11:20:05.042Z,5.9
2023-03-29T11:25:00.556Z,7.8
2023-03-29T11:30:00.632Z,9.0
2023-03-29T11:35:00.620Z,6.9
2023-03-29T11:40:00.752Z,9.3
2023-03-29T11:45:00.585Z,8.5
2023-03-29T11:50:00.610Z,7.8
2023-03-29T11:55:00.571Z,11.7
2023-03-29T12:00:00.598Z,5.7
2023-03-29T12:05:00.574Z,2.8
2023-03-29T12:10:00.819Z,7.4
2023-03-29T12:15:00.593Z,9.7
2023-03-29T12:20:00.626Z,11.3
2023-03-29T12:25:00.549Z,9.6
2023-03-29T12:30:00.639Z,9.3
2023-03-29T12:35:01.223Z,10.2
2023-03-29T12:40:00.597Z,8.5
2023-03-29T12:45:00.534Z,5.3
2023-03-29T12:50:00.618Z,10.2
2023-03-29T12:55:00.575Z,5.5
2023-03-29T13:00:00.585Z,7.1
2023-03-29T13:05:00.657Z,9.4
2023-03-29T13:10:00.593Z,8.7
2023-03-29T13:15:00.692Z,11.6
2023-03-29T13:20:00.591Z,8.7
2023-03-29T13:25:00.596Z,8.3
2023-03-29T13:30:00.555Z,7.6
2023-03-29T13:35:00.583Z,9.9
2023-03-29T13:40:00.603Z,7.2
2023-03-29T13:45:00.613Z,4.8
2023-03-29T13:50:00.619Z,8.7
2023-03-29T13:55:00.538Z,8.0
2023-03-29T14:00:00.657Z,7.7
2023-03-29T14:05:00.548Z,6.1
2023-03-29T14:10:00.605Z,6.1
2023-03-29T14:15:00.646Z,7.1
2023-03-29T14:20:00.755Z,4.7
2023-03-29T14:25:00.532Z,9.1
2023-03-29T14:30:00.618Z,5.2
2023-03-29T14:35:00.555Z,5.6
2023-03-29T14:40:00.683Z,7.9
2023-03-29T14:45:00.591Z,5.4
2023-03-29T14:50:00.663Z,5.7
2023-03-29T14:55:00.591Z,2.4
2023-03-29T15:00:00.609Z,8.6
2023-03-29T15:05:00.605Z,6.2
2023-03-29T15:10:00.752Z,8.6
2023-03-29T15:15:00.588Z,7.2
2023-03-29T15:20:00.886Z,7.2
2023-03-29T15:25:00.544Z,5.9
2023-03-29T15:30:00.587Z,4.2
2023-03-29T15:35:00.544Z,5.6
2023-03-29T15:40:00.591Z,1.5
2023-03-29T15:45:00.614Z,4.2
2023-03-29T15:50:00.588Z,1.6
2023-03-29T15:55:00.567Z,2.6
2023-03-29T16:00:00.578Z,2.7
2023-03-29T16:05:00.539Z,3.3
2023-03-29T16:10:00.579Z,3.3
2023-03-29T16:15:00.658Z,3.7
2023-03-29T16:20:00.642Z,1.0
2023-03-29T16:25:00.583Z,1.1
2023-03-29T16:30:00.655Z,2.0
2023-03-29T16:35:00.602Z,1.4
2023-03-29T16:40:00.562Z,1.8
2023-03-29T16:45:00.603Z,1.7
2023-03-29T16:50:00.852Z,1.0
2023-03-29T16:55:00.547Z,1.5
2023-03-29T17:00:00.590Z,1.1
2023-03-29T17:05:00.555Z,1.4
2023-03-29T17:10:00.616Z,2.0
2023-03-29T17:15:00.616Z,1.5
2023-03-29T17:20:00.580Z,0.2
2023-03-29T17:25:00.547Z,0.9
2023-03-29T17:30:00.839Z,0.9
2023-03-29T17:35:00.597Z,0.3
2023-03-29T17:40:00.594Z,0.1
2023-03-29T17:45:00.537Z,0.8
2023-03-29T17:50:00.588Z,0.5
2023-03-29T17:55:00.622Z,0.1
2023-03-29T18:00:00.555Z,0.4
2023-03-29T18:05:00.567Z,0.0
2023-03-29T18:10:00.586Z,0.8
2023-03-29T18:15:00.566Z,0.1
2023-03-29T18:20:00.604Z,0.1
2023-03-29T18:25:00.531Z,0.3
2023-03-29T18:30:00.610Z,0.6
2023-03-29T18:35:00.584Z,0.2
2023-03-29T18:40:00.579Z,2.0
2023-03-29T18:45:00.580Z,0.5
2023-03-29T18:50:00.745Z,0.3
2023-03-29T18:55:00.549Z,0.0
2023-03-29T19:00:00.611Z,0.3
2023-03-29T19:05:00.577Z,2.1
2023-03-29T19:10:00.582Z,0.7
2023-03-29T19:15:00.550Z,0.9
2023-03-29T19:20:00.649Z,0.1
2023-03-29T19:25:00.682Z,0.4
2023-03-29T19:30:00.617Z,0.2
2023-03-29T19:35:00.596Z,0.2
2023-03-29T19:40:00.586Z,0.0
2023-03-29T19:45:00.538Z,0.2
2023-03-29T19:50:00.593Z,0.0
2023-03-29T19:55:00.533Z,0.8
2023-03-29T20:00:00.597Z,0.0
2023-03-29T20:05:00.526Z,0.0
2023-03-29T20:10:00.580Z,0.1
2023-03-29T20:15:00.593Z,0.0
2023-03-29T20:20:00.581Z,0.0
2023-03-29T20:25:00.536Z,0.0
2023-03-29T20:30:00.573Z,0.0
2023-03-29T20:35:00.536Z,0.0
2023-03-29T20:40:00.584Z,0.0
2023-03-29T20:45:00.622Z,0.0
2023-03-29T20:50:00.588Z,0.0
2023-03-29T20:55:00.521Z,0.6
2023-03-29T21:00:00.593Z,0.5
2023-03-29T21:05:00.576Z,0.1
2023-03-29T21:10:00.571Z,0.3
2023-03-29T21:15:00.590Z,0.1
2023-03-29T21:20:00.630Z,1.1
2023-03-29T21:25:00.613Z,0.1
2023-03-29T21:30:00.602Z,1.3
2023-03-29T21:35:00.613Z,0.7
2023-03-29T21:40:00.728Z,1.3
2023-03-29T21:45:00.613Z,0.2
2023-03-29T21:50:00.635Z,0.1
2023-03-29T21:55:00.610Z,0.1
2023-03-29T22:00:00.647Z,0.0
2023-03-29T22:05:00.555Z,0.4
2023-03-29T22:10:00.589Z,0.2
2023-03-29T22:15:00.571Z,0.0
2023-03-29T22:20:00.593Z,0.3
2023-03-29T22:25:00.627Z,0.0
2023-03-29T22:30:00.572Z,0.0
2023-03-29T22:35:00.628Z,0.0
2023-03-29T22:40:00.601Z,0.0
2023-03-29T22:45:00.533Z,0.0
2023-03-29T22:50:00.588Z,0.0
2023-03-29T22:55:00.531Z,1.2
2023-03-29T23:00:00.595Z,0.7
2023-03-29T23:05:00.610Z,0.8
2023-03-29T23:10:00.598Z,0.9
2023-03-29T23:15:00.711Z,0.7
2023-03-29T23:20:00.718Z,0.9
2023-03-29T23:25:00.595Z,1.1
2023-03-29T23:30:00.602Z,0.4
2023-03-29T23:35:00.653Z,0.5
2023-03-29T23:40:00.569Z,0.6
2023-03-29T23:45:00.589Z,0.0
2023-03-29T23:50:00.636Z,0.0
2023-03-29T23:55:00.858Z,0.0
